Drumore, PA (17518)

9:26 AM EDT on July 26, 2016 (GMT -0400)
Harmony Ridge | | Change Station

Elev 518 ft 39.80 °N, 76.23 °W | Updated 2 minutes ago

Partly Cloudy
Partly Cloudy
76.8 °F
Feels Like 78 °F
N
0.0
Wind Variable Wind from WNW

Today
High -- | Low -- °F
--% Chance of Precip.
Yesterday
High -- | Low -- °F
Precip. -- in
Pressure 29.97 in
Visibility 4.0 miles
Clouds Few 400 ft
Heat Index 78 °F
Dew Point 74 °F
Humidity 92%
Rainfall 0.00 in
Snow Depth Not available.
5:58 AM 8:23 PM
Waning Gibbous, 55% visible
METAR KLNS 261253Z 29005KT 4SM BR FEW004 23/23 A2998 RMK AO2 SLP148 T02330228
Pressure 29.97 in
Visibility 4.0 miles
Clouds Few 400 ft
Heat Index 78 °F
Dew Point 74 °F
Humidity 92%
Rainfall 0.00 in
Snow Depth Not available.
5:58 AM 8:23 PM
Waning Gibbous, 55% visible
METAR KLNS 261253Z 29005KT 4SM BR FEW004 23/23 A2998 RMK AO2 SLP148 T02330228

10-Day Weather Forecast

Almanac

Astronomy

Jul. 26, 2016 Rise Set
Actual Time
Civil Twilight
Nautical Twilight
Astronomical Twilight
Moon
Length of Visible Light
Length of Day
Tomorrow will be .
, % of the Moon is Illuminated

Today's Extremes

State Highs State Lows

Community

WunderPhotos

Upload Photos

1,927,582 photos uploaded!

WunderBlog® & News

Nearby

Air Quality

  Air Quality AQ Index Pollutant
Not available.

Snow Depth

Station Depth Elevation

Earthquake Activity

City Distance Mag. Time & Date
Minimum magnitude displayed is 2.5.

Coastal Water Temperatures

Place Temperature

Stations

Nearby Weather Stations

Station Location Temp. Windchill Dew Point Humidity Wind Precip. Elev Updated Type
                   

Watches & Warnings

There are currently no watches in effect.